sensor_id;sensor_type;location;lat;lon;timestamp;pressure;altitude;pressure_sealevel;temperature;humidity
42621;BME280;28252;53.336;-6.298;2023-05-15T00:00:11;101829.84;;;20.48;100.00
42621;BME280;28252;53.336;-6.298;2023-05-15T00:00:48;101831.56;;;20.49;100.00
42621;BME280;28252;53.336;-6.298;2023-05-15T00:01:19;101837.13;;;20.47;100.00
42621;BME280;28252;53.336;-6.298;2023-05-15T00:01:53;101828.16;;;20.47;100.00
42621;BME280;28252;53.336;-6.298;2023-05-15T00:02:24;101836.28;;;20.47;100.00
42621;BME280;28252;53.336;-6.298;2023-05-15T00:02:58;101838.97;;;20.47;100.00
42621;BME280;28252;53.336;-6.298;2023-05-15T00:03:29;101838.97;;;20.47;100.00
42621;BME280;28252;53.336;-6.298;2023-05-15T00:04:02;101834.56;;;20.46;100.00
42621;BME280;28252;53.336;-6.298;2023-05-15T00:04:34;101845.38;;;20.46;100.00
42621;BME280;28252;53.336;-6.298;2023-05-15T00:05:07;101836.56;;;20.44;100.00
42621;BME280;28252;53.336;-6.298;2023-05-15T00:05:43;101832.84;;;20.45;100.00
42621;BME280;28252;53.336;-6.298;2023-05-15T00:06:19;101838.25;;;20.45;100.00
42621;BME280;28252;53.336;-6.298;2023-05-15T00:06:52;101841.97;;;20.44;100.00
42621;BME280;28252;53.336;-6.298;2023-05-15T00:07:25;101840.09;;;20.44;100.00
42621;BME280;28252;53.336;-6.298;2023-05-15T00:07:56;101834.69;;;20.44;100.00
42621;BME280;28252;53.336;-6.298;2023-05-15T00:08:29;101837.41;;;20.44;100.00
42621;BME280;28252;53.336;-6.298;2023-05-15T00:09:00;101835.72;;;20.43;100.00
42621;BME280;28252;53.336;-6.298;2023-05-15T00:09:31;101839.25;;;20.44;100.00
42621;BME280;28252;53.336;-6.298;2023-05-15T00:10:08;101842.81;;;20.44;100.00
42621;BME280;28252;53.336;-6.298;2023-05-15T00:10:43;101845.66;;;20.43;100.00
42621;BME280;28252;53.336;-6.298;2023-05-15T00:11:16;101833.16;;;20.42;100.00
42621;BME280;28252;53.336;-6.298;2023-05-15T00:11:47;101838.56;;;20.42;100.00
42621;BME280;28252;53.336;-6.298;2023-05-15T00:12:18;101836.84;;;20.41;100.00
42621;BME280;28252;53.336;-6.298;2023-05-15T00:12:53;101843.09;;;20.41;100.00
42621;BME280;28252;53.336;-6.298;2023-05-15T00:13:26;101842.25;;;20.41;100.00
42621;BME280;28252;53.336;-6.298;2023-05-15T00:13:57;101843.09;;;20.41;100.00
42621;BME280;28252;53.336;-6.298;2023-05-15T00:14:35;101843.09;;;20.41;100.00
42621;BME280;28252;53.336;-6.298;2023-05-15T00:15:06;101836.84;;;20.41;100.00
42621;BME280;28252;53.336;-6.298;2023-05-15T00:15:39;101839.53;;;20.41;100.00
42621;BME280;28252;53.336;-6.298;2023-05-15T00:16:12;101842.38;;;20.39;100.00
42621;BME280;28252;53.336;-6.298;2023-05-15T00:16:43;101845.94;;;20.40;100.00
42621;BME280;28252;53.336;-6.298;2023-05-15T00:17:14;101838.84;;;20.39;100.00
42621;BME280;28252;53.336;-6.298;2023-05-15T00:17:46;101844.25;;;20.39;100.00
42621;BME280;28252;53.336;-6.298;2023-05-15T00:18:19;101844.25;;;20.39;100.00
42621;BME280;28252;53.336;-6.298;2023-05-15T00:18:52;101841.53;;;20.39;100.00
42621;BME280;28252;53.336;-6.298;2023-05-15T00:19:31;101835.28;;;20.38;100.00
42621;BME280;28252;53.336;-6.298;2023-05-15T00:20:07;101832.59;;;20.38;100.00
42621;BME280;28252;53.336;-6.298;2023-05-15T00:20:44;101837.13;;;20.38;100.00
42621;BME280;28252;53.336;-6.298;2023-05-15T00:21:25;101836.41;;;20.36;100.00
42621;BME280;28252;53.336;-6.298;2023-05-15T00:22:00;101835.44;;;20.37;100.00
42621;BME280;28252;53.336;-6.298;2023-05-15T00:22:34;101832.72;;;20.37;100.00
42621;BME280;28252;53.336;-6.298;2023-05-15T00:23:08;101832.88;;;20.35;100.00
42621;BME280;28252;53.336;-6.298;2023-05-15T00:23:39;101839.13;;;20.36;100.00
42621;BME280;28252;53.336;-6.298;2023-05-15T00:24:10;101839.13;;;20.36;100.00
42621;BME280;28252;53.336;-6.298;2023-05-15T00:24:41;101833.72;;;20.36;100.00
42621;BME280;28252;53.336;-6.298;2023-05-15T00:25:18;101840.09;;;20.34;100.00
42621;BME280;28252;53.336;-6.298;2023-05-15T00:25:49;101837.41;;;20.34;100.00
42621;BME280;28252;53.336;-6.298;2023-05-15T00:26:22;101838.41;;;20.33;100.00
42621;BME280;28252;53.336;-6.298;2023-05-15T00:26:58;101841.97;;;20.34;100.00
42621;BME280;28252;53.336;-6.298;2023-05-15T00:27:32;101841.13;;;20.33;100.00
42621;BME280;28252;53.336;-6.298;2023-05-15T00:28:03;101834.88;;;20.33;100.00
42621;BME280;28252;53.336;-6.298;2023-05-15T00:28:36;101842.09;;;20.32;100.00
42621;BME280;28252;53.336;-6.298;2023-05-15T00:29:09;101843.81;;;20.33;100.00
42621;BME280;28252;53.336;-6.298;2023-05-15T00:29:43;101851.09;;;20.33;100.00
42621;BME280;28252;53.336;-6.298;2023-05-15T00:30:14;101844.81;;;20.32;100.00
42621;BME280;28252;53.336;-6.298;2023-05-15T00:30:49;101841.25;;;20.32;100.00
42621;BME280;28252;53.336;-6.298;2023-05-15T00:31:25;101842.09;;;20.32;100.00
42621;BME280;28252;53.336;-6.298;2023-05-15T00:31:59;101843.13;;;20.31;100.00
42621;BME280;28252;53.336;-6.298;2023-05-15T00:32:32;101841.41;;;20.30;100.00
42621;BME280;28252;53.336;-6.298;2023-05-15T00:33:08;101846.81;;;20.30;100.00
42621;BME280;28252;53.336;-6.298;2023-05-15T00:33:47;101844.94;;;20.31;100.00
42621;BME280;28252;53.336;-6.298;2023-05-15T00:34:20;101842.38;;;20.29;100.00
42621;BME280;28252;53.336;-6.298;2023-05-15T00:34:52;101845.97;;;20.30;100.00
42621;BME280;28252;53.336;-6.298;2023-05-15T00:35:27;101846.81;;;20.30;100.00
42621;BME280;28252;53.336;-6.298;2023-05-15T00:36:01;101839.69;;;20.29;100.00
42621;BME280;28252;53.336;-6.298;2023-05-15T00:36:35;101845.09;;;20.29;100.00
42621;BME280;28252;53.336;-6.298;2023-05-15T00:37:06;101848.81;;;20.28;100.00
42621;BME280;28252;53.336;-6.298;2023-05-15T00:37:38;101843.41;;;20.28;100.00
42621;BME280;28252;53.336;-6.298;2023-05-15T00:38:14;101842.56;;;20.28;100.00
42621;BME280;28252;53.336;-6.298;2023-05-15T00:38:47;101841.69;;;20.27;100.00
42621;BME280;28252;53.336;-6.298;2023-05-15T00:39:23;101848.94;;;20.27;100.00
42621;BME280;28252;53.336;-6.298;2023-05-15T00:39:54;101847.09;;;20.27;100.00
42621;BME280;28252;53.336;-6.298;2023-05-15T00:40:25;101842.69;;;20.26;100.00
42621;BME280;28252;53.336;-6.298;2023-05-15T00:40:57;101847.09;;;20.27;100.00
42621;BME280;28252;53.336;-6.298;2023-05-15T00:41:31;101844.53;;;20.26;100.00
42621;BME280;28252;53.336;-6.298;2023-05-15T00:42:03;101850.81;;;20.26;100.00
42621;BME280;28252;53.336;-6.298;2023-05-15T00:42:37;101846.38;;;20.25;100.00
42621;BME280;28252;53.336;-6.298;2023-05-15T00:43:08;101851.78;;;20.25;100.00
42621;BME280;28252;53.336;-6.298;2023-05-15T00:43:43;101848.25;;;20.25;100.00
42621;BME280;28252;53.336;-6.298;2023-05-15T00:44:15;101842.84;;;20.25;100.00
42621;BME280;28252;53.336;-6.298;2023-05-15T00:44:52;101846.38;;;20.25;100.00
42621;BME280;28252;53.336;-6.298;2023-05-15T00:45:26;101847.38;;;20.24;100.00
42621;BME280;28252;53.336;-6.298;2023-05-15T00:46:00;101847.38;;;20.24;100.00
42621;BME280;28252;53.336;-6.298;2023-05-15T00:46:34;101850.06;;;20.24;100.00
42621;BME280;28252;53.336;-6.298;2023-05-15T00:47:06;101845.69;;;20.23;100.00
42621;BME280;28252;53.336;-6.298;2023-05-15T00:47:37;101845.69;;;20.23;100.00
42621;BME280;28252;53.336;-6.298;2023-05-15T00:48:14;101842.97;;;20.23;100.00
42621;BME280;28252;53.336;-6.298;2023-05-15T00:48:49;101848.38;;;20.23;100.00
42621;BME280;28252;53.336;-6.298;2023-05-15T00:49:22;101849.38;;;20.22;100.00
42621;BME280;28252;53.336;-6.298;2023-05-15T00:49:53;101850.25;;;20.23;100.00
42621;BME280;28252;53.336;-6.298;2023-05-15T00:50:25;101849.38;;;20.22;100.00
42621;BME280;28252;53.336;-6.298;2023-05-15T00:50:59;101840.41;;;20.22;100.00
42621;BME280;28252;53.336;-6.298;2023-05-15T00:51:32;101854.78;;;20.22;100.00
42621;BME280;28252;53.336;-6.298;2023-05-15T00:52:03;101847.69;;;20.21;100.00
42621;BME280;28252;53.336;-6.298;2023-05-15T00:52:39;101845.81;;;20.22;100.00
42621;BME280;28252;53.336;-6.298;2023-05-15T00:53:11;101858.50;;;20.21;100.00
42621;BME280;28252;53.336;-6.298;2023-05-15T00:53:44;101850.38;;;20.21;100.00
42621;BME280;28252;53.336;-6.298;2023-05-15T00:54:15;101854.06;;;20.20;100.00
42621;BME280;28252;53.336;-6.298;2023-05-15T00:54:48;101862.19;;;20.20;100.00
42621;BME280;28252;53.336;-6.298;2023-05-15T00:55:21;101853.09;;;20.21;100.00
42621;BME280;28252;53.336;-6.298;2023-05-15T00:55:55;101857.75;;;20.19;100.00
42621;BME280;28252;53.336;-6.298;2023-05-15T00:56:27;101855.94;;;20.20;100.00
42621;BME280;28252;53.336;-6.298;2023-05-15T00:57:05;101853.38;;;20.18;100.00
42621;BME280;28252;53.336;-6.298;2023-05-15T00:57:40;101855.06;;;20.19;100.00
42621;BME280;28252;53.336;-6.298;2023-05-15T00:58:15;101853.38;;;20.18;100.00
42621;BME280;28252;53.336;-6.298;2023-05-15T00:58:50;101853.38;;;20.18;100.00
42621;BME280;28252;53.336;-6.298;2023-05-15T00:59:32;101857.06;;;20.17;100.00
42621;BME280;28252;53.336;-6.298;2023-05-15T01:00:03;101857.94;;;20.18;100.00
42621;BME280;28252;53.336;-6.298;2023-05-15T01:00:43;101856.06;;;20.18;100.00
42621;BME280;28252;53.336;-6.298;2023-05-15T01:01:19;101856.06;;;20.18;100.00
42621;BME280;28252;53.336;-6.298;2023-05-15T01:01:55;101857.06;;;20.17;100.00
42621;BME280;28252;53.336;-6.298;2023-05-15T01:02:28;101857.06;;;20.17;100.00
42621;BME280;28252;53.336;-6.298;2023-05-15T01:02:59;101851.66;;;20.17;100.00
42621;BME280;28252;53.336;-6.298;2023-05-15T01:03:35;101857.19;;;20.15;100.00
42621;BME280;28252;53.336;-6.298;2023-05-15T01:04:09;101855.38;;;20.16;100.00
42621;BME280;28252;53.336;-6.298;2023-05-15T01:04:41;101855.38;;;20.16;100.00
42621;BME280;28252;53.336;-6.298;2023-05-15T01:05:16;101860.78;;;20.16;100.00
42621;BME280;28252;53.336;-6.298;2023-05-15T01:05:50;101860.78;;;20.16;100.00
42621;BME280;28252;53.336;-6.298;2023-05-15T01:06:25;101861.75;;;20.15;100.00
42621;BME280;28252;53.336;-6.298;2023-05-15T01:06:58;101855.38;;;20.16;100.00
42621;BME280;28252;53.336;-6.298;2023-05-15T01:07:37;101853.66;;;20.15;100.00
42621;BME280;28252;53.336;-6.298;2023-05-15T01:08:53;101859.91;;;20.15;100.00
42621;BME280;28252;53.336;-6.298;2023-05-15T01:09:09;101865.44;;;20.14;100.00
42621;BME280;28252;53.336;-6.298;2023-05-15T01:09:46;101864.47;;;20.15;100.00
42621;BME280;28252;53.336;-6.298;2023-05-15T01:10:23;101858.22;;;20.14;100.00
42621;BME280;28252;53.336;-6.298;2023-05-15T01:11:00;101865.44;;;20.14;100.00
42621;BME280;28252;53.336;-6.298;2023-05-15T01:11:36;101866.47;;;20.13;100.00
42621;BME280;28252;53.336;-6.298;2023-05-15T01:12:10;101856.50;;;20.13;100.00
42621;BME280;28252;53.336;-6.298;2023-05-15T01:12:46;101861.91;;;20.13;100.00
42621;BME280;28252;53.336;-6.298;2023-05-15T01:13:23;101861.06;;;20.13;100.00
42621;BME280;28252;53.336;-6.298;2023-05-15T01:13:56;101860.19;;;20.12;100.00
42621;BME280;28252;53.336;-6.298;2023-05-15T01:14:27;101861.06;;;20.13;100.00
42621;BME280;28252;53.336;-6.298;2023-05-15T01:15:01;101864.75;;;20.12;100.00
42621;BME280;28252;53.336;-6.298;2023-05-15T01:15:36;101866.47;;;20.13;100.00
42621;BME280;28252;53.336;-6.298;2023-05-15T01:16:11;101870.16;;;20.12;100.00
42621;BME280;28252;53.336;-6.298;2023-05-15T01:16:44;101862.03;;;20.12;100.00
42621;BME280;28252;53.336;-6.298;2023-05-15T01:17:16;101864.75;;;20.12;100.00
42621;BME280;28252;53.336;-6.298;2023-05-15T01:17:47;101860.34;;;20.11;100.00
42621;BME280;28252;53.336;-6.298;2023-05-15T01:18:28;101863.06;;;20.11;100.00
42621;BME280;28252;53.336;-6.298;2023-05-15T01:19:04;101858.63;;;20.10;100.00
42621;BME280;28252;53.336;-6.298;2023-05-15T01:19:37;101856.75;;;20.10;100.00
42621;BME280;28252;53.336;-6.298;2023-05-15T01:20:11;101866.75;;;20.10;100.00
42621;BME280;28252;53.336;-6.298;2023-05-15T01:20:49;101864.88;;;20.10;100.00
42621;BME280;28252;53.336;-6.298;2023-05-15T01:22:11;101859.59;;;20.09;100.00
42621;BME280;28252;53.336;-6.298;2023-05-15T01:23:14;101865.03;;;20.09;100.00
42621;BME280;28252;53.336;-6.298;2023-05-15T01:24:04;101857.91;;;20.08;100.00
42621;BME280;28252;53.336;-6.298;2023-05-15T01:28:00;101861.59;;;20.07;100.00
42621;BME280;28252;53.336;-6.298;2023-05-15T01:28:37;101859.91;;;20.06;100.00
42621;BME280;28252;53.336;-6.298;2023-05-15T01:29:57;101858.19;;;20.05;100.00
42621;BME280;28252;53.336;-6.298;2023-05-15T01:30:33;101859.03;;;20.05;100.00
42621;BME280;28252;53.336;-6.298;2023-05-15T01:31:08;101851.06;;;20.04;100.00
42621;BME280;28252;53.336;-6.298;2023-05-15T01:31:43;101856.47;;;20.04;100.00
42621;BME280;28252;53.336;-6.298;2023-05-15T01:32:23;101860.19;;;20.03;100.00
42621;BME280;28252;53.336;-6.298;2023-05-15T01:33:33;101858.47;;;20.02;100.00
42621;BME280;28252;53.336;-6.298;2023-05-15T01:34:07;101860.19;;;20.03;100.00
42621;BME280;28252;53.336;-6.298;2023-05-15T01:35:56;101862.19;;;20.01;100.00
42621;BME280;28252;53.336;-6.298;2023-05-15T01:36:33;101858.47;;;20.02;100.00
42621;BME280;28252;53.336;-6.298;2023-05-15T01:37:07;101863.88;;;20.02;100.00
42621;BME280;28252;53.336;-6.298;2023-05-15T01:37:43;101864.91;;;20.01;100.00
42621;BME280;28252;53.336;-6.298;2023-05-15T01:39:00;101863.16;;;20.00;100.00
42621;BME280;28252;53.336;-6.298;2023-05-15T01:39:34;101871.28;;;20.00;100.00
42621;BME280;28252;53.336;-6.298;2023-05-15T01:40:08;101866.84;;;19.99;100.00
42621;BME280;28252;53.336;-6.298;2023-05-15T01:40:47;101873.16;;;19.99;100.00
42621;BME280;28252;53.336;-6.298;2023-05-15T01:41:28;101871.28;;;20.00;100.00
42621;BME280;28252;53.336;-6.298;2023-05-15T01:42:09;101868.72;;;19.98;100.00
42621;BME280;28252;53.336;-6.298;2023-05-15T01:42:55;101871.56;;;19.96;100.00
42621;BME280;28252;53.336;-6.298;2023-05-15T01:43:27;101870.56;;;19.98;100.00
42621;BME280;28252;53.336;-6.298;2023-05-15T01:44:07;101874.13;;;19.98;100.00
42621;BME280;28252;53.336;-6.298;2023-05-15T01:44:42;101866.16;;;19.96;100.00
42621;BME280;28252;53.336;-6.298;2023-05-15T01:45:23;101869.88;;;19.95;100.00
42621;BME280;28252;53.336;-6.298;2023-05-15T01:45:59;101866.16;;;19.96;100.00
42621;BME280;28252;53.336;-6.298;2023-05-15T01:46:33;101869.88;;;19.95;100.00
42621;BME280;28252;53.336;-6.298;2023-05-15T01:47:10;101865.44;;;19.94;100.00
42621;BME280;28252;53.336;-6.298;2023-05-15T01:47:45;101869.00;;;19.95;100.00
42621;BME280;28252;53.336;-6.298;2023-05-15T01:48:21;101867.16;;;19.95;100.00
42621;BME280;28252;53.336;-6.298;2023-05-15T01:48:57;101865.44;;;19.94;100.00
42621;BME280;28252;53.336;-6.298;2023-05-15T01:49:30;101870.84;;;19.94;100.00
42621;BME280;28252;53.336;-6.298;2023-05-15T01:50:04;101875.41;;;19.94;100.00
42621;BME280;28252;53.336;-6.298;2023-05-15T01:50:40;101873.56;;;19.94;100.00
42621;BME280;28252;53.336;-6.298;2023-05-15T01:51:15;101867.31;;;19.94;100.00
42621;BME280;28252;53.336;-6.298;2023-05-15T01:52:03;101871.84;;;19.93;100.00
42621;BME280;28252;53.336;-6.298;2023-05-15T01:52:40;101864.72;;;19.92;100.00
42621;BME280;28252;53.336;-6.298;2023-05-15T01:53:19;101864.72;;;19.92;100.00
42621;BME280;28252;53.336;-6.298;2023-05-15T01:53:56;101870.16;;;19.92;100.00
42621;BME280;28252;53.336;-6.298;2023-05-15T01:54:33;101870.16;;;19.92;100.00
42621;BME280;28252;53.336;-6.298;2023-05-15T01:55:06;101868.41;;;19.91;100.00
42621;BME280;28252;53.336;-6.298;2023-05-15T01:55:40;101863.00;;;19.91;100.00
42621;BME280;28252;53.336;-6.298;2023-05-15T01:56:15;101873.84;;;19.91;100.00
42621;BME280;28252;53.336;-6.298;2023-05-15T01:56:50;101873.84;;;19.91;100.00
42621;BME280;28252;53.336;-6.298;2023-05-15T01:57:24;101873.84;;;19.91;100.00
42621;BME280;28252;53.336;-6.298;2023-05-15T01:58:02;101871.25;;;19.90;100.00
42621;BME280;28252;53.336;-6.298;2023-05-15T01:58:36;101866.72;;;19.90;100.00
42621;BME280;28252;53.336;-6.298;2023-05-15T01:59:12;101872.13;;;19.90;100.00
42621;BME280;28252;53.336;-6.298;2023-05-15T01:59:45;101873.13;;;19.89;100.00
42621;BME280;28252;53.336;-6.298;2023-05-15T02:00:19;101873.13;;;19.89;100.00
42621;BME280;28252;53.336;-6.298;2023-05-15T02:00:54;101870.41;;;19.89;100.00
42621;BME280;28252;53.336;-6.298;2023-05-15T02:01:28;101872.28;;;19.89;100.00
42621;BME280;28252;53.336;-6.298;2023-05-15T02:02:05;101871.41;;;19.88;100.00
42621;BME280;28252;53.336;-6.298;2023-05-15T02:02:39;101868.69;;;19.88;100.00
42621;BME280;28252;53.336;-6.298;2023-05-15T02:03:12;101873.25;;;19.88;100.00
42621;BME280;28252;53.336;-6.298;2023-05-15T02:03:49;101875.13;;;19.87;100.00
42621;BME280;28252;53.336;-6.298;2023-05-15T02:04:26;101875.13;;;19.87;100.00
42621;BME280;28252;53.336;-6.298;2023-05-15T02:05:00;101875.13;;;19.87;100.00
42621;BME280;28252;53.336;-6.298;2023-05-15T02:05:37;101874.25;;;19.87;100.00
42621;BME280;28252;53.336;-6.298;2023-05-15T02:06:13;101876.09;;;19.86;100.00
42621;BME280;28252;53.336;-6.298;2023-05-15T02:06:49;101881.50;;;19.86;100.00
42621;BME280;28252;53.336;-6.298;2023-05-15T02:07:23;101871.66;;;19.85;100.00
42621;BME280;28252;53.336;-6.298;2023-05-15T02:07:58;101875.25;;;19.86;100.00
42621;BME280;28252;53.336;-6.298;2023-05-15T02:08:34;101871.66;;;19.85;100.00
42621;BME280;28252;53.336;-6.298;2023-05-15T02:09:09;101873.41;;;19.86;100.00
42621;BME280;28252;53.336;-6.298;2023-05-15T02:09:40;101868.97;;;19.85;100.00
42621;BME280;28252;53.336;-6.298;2023-05-15T02:10:16;101869.97;;;19.84;100.00
42621;BME280;28252;53.336;-6.298;2023-05-15T02:10:51;101878.09;;;19.84;100.00
42621;BME280;28252;53.336;-6.298;2023-05-15T02:11:27;101877.25;;;19.84;100.00
42621;BME280;28252;53.336;-6.298;2023-05-15T02:12:01;101872.69;;;19.84;100.00
42621;BME280;28252;53.336;-6.298;2023-05-15T02:12:33;101877.25;;;19.84;100.00
42621;BME280;28252;53.336;-6.298;2023-05-15T02:13:06;101867.41;;;19.83;100.00
42621;BME280;28252;53.336;-6.298;2023-05-15T02:13:44;101869.28;;;19.82;100.00
42621;BME280;28252;53.336;-6.298;2023-05-15T02:14:22;101879.22;;;19.82;100.00
42621;BME280;28252;53.336;-6.298;2023-05-15T02:14:55;101878.38;;;19.81;100.00
42621;BME280;28252;53.336;-6.298;2023-05-15T02:15:29;101873.81;;;19.82;100.00
42621;BME280;28252;53.336;-6.298;2023-05-15T02:16:05;101867.56;;;19.81;100.00
42621;BME280;28252;53.336;-6.298;2023-05-15T02:16:38;101873.94;;;19.80;100.00
42621;BME280;28252;53.336;-6.298;2023-05-15T02:17:12;101872.13;;;19.81;100.00
42621;BME280;28252;53.336;-6.298;2023-05-15T02:17:47;101874.81;;;19.81;100.00
42621;BME280;28252;53.336;-6.298;2023-05-15T02:18:20;101870.38;;;19.80;100.00
42621;BME280;28252;53.336;-6.298;2023-05-15T02:18:54;101873.94;;;19.80;100.00
42621;BME280;28252;53.336;-6.298;2023-05-15T02:19:27;101873.09;;;19.80;100.00
42621;BME280;28252;53.336;-6.298;2023-05-15T02:20:03;101864.13;;;19.79;100.00
42621;BME280;28252;53.336;-6.298;2023-05-15T02:20:43;101864.13;;;19.79;100.00
42621;BME280;28252;53.336;-6.298;2023-05-15T02:21:17;101868.69;;;19.78;100.00
42621;BME280;28252;53.336;-6.298;2023-05-15T02:21:51;101862.41;;;19.78;100.00
42621;BME280;28252;53.336;-6.298;2023-05-15T02:22:24;101862.41;;;19.78;100.00
42621;BME280;28252;53.336;-6.298;2023-05-15T02:22:59;101858.03;;;19.77;100.00
42621;BME280;28252;53.336;-6.298;2023-05-15T02:23:32;101862.41;;;19.78;100.00
42621;BME280;28252;53.336;-6.298;2023-05-15T02:24:08;101856.16;;;19.77;100.00
42621;BME280;28252;53.336;-6.298;2023-05-15T02:24:46;101864.41;;;19.76;100.00
42621;BME280;28252;53.336;-6.298;2023-05-15T02:25:24;101855.31;;;19.77;100.00
42621;BME280;28252;53.336;-6.298;2023-05-15T02:26:02;101864.41;;;19.76;100.00
42621;BME280;28252;53.336;-6.298;2023-05-15T02:26:45;101868.09;;;19.75;100.00
42621;BME280;28252;53.336;-6.298;2023-05-15T02:27:28;101862.69;;;19.75;100.00
42621;BME280;28252;53.336;-6.298;2023-05-15T02:28:06;101868.09;;;19.75;100.00
42621;BME280;28252;53.336;-6.298;2023-05-15T02:30:48;101877.19;;;19.74;100.00
42621;BME280;28252;53.336;-6.298;2023-05-15T02:31:30;101872.75;;;19.73;100.00
42621;BME280;28252;53.336;-6.298;2023-05-15T02:34:07;101877.47;;;19.71;100.00
42621;BME280;28252;53.336;-6.298;2023-05-15T02:34:51;101872.06;;;19.71;100.00
42621;BME280;28252;53.336;-6.298;2023-05-15T02:35:37;101877.47;;;19.71;100.00
42621;BME280;28252;53.336;-6.298;2023-05-15T02:36:13;101869.47;;;19.69;100.00
42621;BME280;28252;53.336;-6.298;2023-05-15T02:36:53;101864.91;;;19.70;100.00
42621;BME280;28252;53.336;-6.298;2023-05-15T02:37:31;101873.03;;;19.70;100.00
42621;BME280;28252;53.336;-6.298;2023-05-15T02:38:08;101869.47;;;19.69;100.00
42621;BME280;28252;53.336;-6.298;2023-05-15T02:38:49;101868.63;;;19.69;100.00
42621;BME280;28252;53.336;-6.298;2023-05-15T02:39:23;101868.63;;;19.69;100.00
42621;BME280;28252;53.336;-6.298;2023-05-15T02:40:02;101869.63;;;19.68;100.00
42621;BME280;28252;53.336;-6.298;2023-05-15T02:40:36;101870.50;;;19.68;100.00
42621;BME280;28252;53.336;-6.298;2023-05-15T02:41:12;101866.91;;;19.68;100.00
42621;BME280;28252;53.336;-6.298;2023-05-15T02:41:52;101870.63;;;19.67;100.00
42621;BME280;28252;53.336;-6.298;2023-05-15T02:42:27;101867.94;;;19.67;100.00
42621;BME280;28252;53.336;-6.298;2023-05-15T02:42:59;101871.59;;;19.66;100.00
42621;BME280;28252;53.336;-6.298;2023-05-15T02:43:35;101877.00;;;19.66;100.00
42621;BME280;28252;53.336;-6.298;2023-05-15T02:44:14;101870.63;;;19.67;100.00
42621;BME280;28252;53.336;-6.298;2023-05-15T02:44:45;101877.00;;;19.66;100.00
42621;BME280;28252;53.336;-6.298;2023-05-15T02:45:19;101872.59;;;19.65;100.00
42621;BME280;28252;53.336;-6.298;2023-05-15T02:45:55;101878.00;;;19.65;100.00
42621;BME280;28252;53.336;-6.298;2023-05-15T02:46:30;101878.00;;;19.65;100.00
42621;BME280;28252;53.336;-6.298;2023-05-15T02:47:03;101881.72;;;19.64;100.00
42621;BME280;28252;53.336;-6.298;2023-05-15T02:47:43;101877.16;;;19.64;100.00
42621;BME280;28252;53.336;-6.298;2023-05-15T02:48:20;101878.00;;;19.65;100.00
42621;BME280;28252;53.336;-6.298;2023-05-15T02:48:56;101879.00;;;19.64;100.00
42621;BME280;28252;53.336;-6.298;2023-05-15T02:49:31;101887.13;;;19.64;100.00
42621;BME280;28252;53.336;-6.298;2023-05-15T02:50:04;101884.41;;;19.64;100.00
42621;BME280;28252;53.336;-6.298;2023-05-15T02:50:39;101882.69;;;19.63;100.00
42621;BME280;28252;53.336;-6.298;2023-05-15T02:51:14;101882.69;;;19.63;100.00
42621;BME280;28252;53.336;-6.298;2023-05-15T02:51:48;101884.53;;;19.62;100.00
42621;BME280;28252;53.336;-6.298;2023-05-15T02:52:22;101885.41;;;19.63;100.00
42621;BME280;28252;53.336;-6.298;2023-05-15T02:53:02;101879.13;;;19.62;100.00
42621;BME280;28252;53.336;-6.298;2023-05-15T02:53:38;101881.97;;;19.60;100.00
42621;BME280;28252;53.336;-6.298;2023-05-15T02:54:09;101882.81;;;19.61;100.00
42621;BME280;28252;53.336;-6.298;2023-05-15T02:54:41;101878.44;;;19.60;100.00
42621;BME280;28252;53.336;-6.298;2023-05-15T02:55:12;101882.81;;;19.61;100.00
42621;BME280;28252;53.336;-6.298;2023-05-15T02:55:43;101882.81;;;19.61;100.00
42621;BME280;28252;53.336;-6.298;2023-05-15T02:56:14;101881.13;;;19.60;100.00
42621;BME280;28252;53.336;-6.298;2023-05-15T02:56:52;101877.56;;;19.59;100.00
42621;BME280;28252;53.336;-6.298;2023-05-15T02:57:27;101878.44;;;19.60;100.00
42621;BME280;28252;53.336;-6.298;2023-05-15T02:57:58;101885.66;;;19.59;100.00
42621;BME280;28252;53.336;-6.298;2023-05-15T02:58:32;101883.97;;;19.58;100.00
42621;BME280;28252;53.336;-6.298;2023-05-15T02:59:04;101889.38;;;19.58;100.00
42621;BME280;28252;53.336;-6.298;2023-05-15T02:59:35;101882.97;;;19.59;100.00
42621;BME280;28252;53.336;-6.298;2023-05-15T03:00:09;101882.97;;;19.59;100.00
42621;BME280;28252;53.336;-6.298;2023-05-15T03:00:43;101886.66;;;19.58;100.00
42621;BME280;28252;53.336;-6.298;2023-05-15T03:01:17;101887.66;;;19.57;100.00
42621;BME280;28252;53.336;-6.298;2023-05-15T03:01:52;101885.78;;;19.58;100.00
42621;BME280;28252;53.336;-6.298;2023-05-15T03:02:26;101882.25;;;19.57;100.00
42621;BME280;28252;53.336;-6.298;2023-05-15T03:03:04;101888.66;;;19.56;100.00
42621;BME280;28252;53.336;-6.298;2023-05-15T03:03:42;101887.66;;;19.57;100.00
42621;BME280;28252;53.336;-6.298;2023-05-15T03:04:17;101889.66;;;19.55;100.00
42621;BME280;28252;53.336;-6.298;2023-05-15T03:04:48;101887.78;;;19.56;100.00
42621;BME280;28252;53.336;-6.298;2023-05-15T03:05:24;101884.25;;;19.55;100.00
42621;BME280;28252;53.336;-6.298;2023-05-15T03:05:58;101886.94;;;19.55;100.00
42621;BME280;28252;53.336;-6.298;2023-05-15T03:06:37;101886.94;;;19.55;100.00
42621;BME280;28252;53.336;-6.298;2023-05-15T03:07:10;101889.66;;;19.55;100.00
42621;BME280;28252;53.336;-6.298;2023-05-15T03:07:44;101887.91;;;19.54;100.00
42621;BME280;28252;53.336;-6.298;2023-05-15T03:08:15;101887.91;;;19.54;100.00
42621;BME280;28252;53.336;-6.298;2023-05-15T03:08:51;101893.31;;;19.54;100.00
42621;BME280;28252;53.336;-6.298;2023-05-15T03:09:26;101891.63;;;19.53;100.00
42621;BME280;28252;53.336;-6.298;2023-05-15T03:10:04;101897.03;;;19.53;100.00